Ladd AAF Airfield Fairbanks/Ft Wainwright US
ICAO: PAFB
IATA:
Category: Medium
Scheduled Services:

Elevation: 454 ft
TransAlt. 18000 ft.

Airport Communications:
FAIRBANKS APP:125.35
ATIS:134.25
CTAF:125
FAIRBANKS DEP:125.35
FAIRBANKS RDO:25.54
GND:121.7
MEDIVAC OPS:142.35
BASE OPS:118.9
PMSV METRO:128.8
TWR:125

PAFB Zoom In..

Runways:

(A) RW 07L length 8575 ft width 150 ft
---- / hdg 68

(B) RW 07R length 7280 ft width 75 ft
---- / hdg 68

(C) RW 25L length 7280 ft width 75 ft
---- / hdg 248

(D) RW 25R length 8575 ft width 150 ft
---- / hdg 248

Location; PAFB
Day. 22 / Time. 04.28 Zulu
* Altimeter: 29.98
* Temperature: -26° c. 14.8°f.
* Wind from: 000° Speed 00 kn.
Dewpoint: -28° c.
Visibility: 10 Statute Miles.
Clouds: Broken 700 ft.
Clouds: Overcast 4500 ft.

PAFB 220428Z AUTO 00000KT 10SM BKN007 OVC045 M26/M28 A2998 RMK AO2 CIG 006V008 SLP175


Wind - Calm.

jpsM music video
CHECK IT OUT

jpsM - It Moves..

 
jpsmedia.com for Web Design  worldairports.se 2018   terms of use